New Richmond, Wisconsin
Current Conditions -  °F | °C
As of 3:35 PM on Saturday 22 Nov 2014 (Local Time) from KRNH Reporting Station
Haze Haze  
Wind Chill: -3°   Ceiling: 400
Heat Index:   Visibility: 4mi
Dew Point:   Wind: 9mph
Humidity: 99%   Direction: 180°S
Pressure: 29.69"   Gusts: NA
Location:  45.12°N, 92.54°W
Report Text: KRNH 222135Z AUTO 18008KT 4SM BR OVC004 01/01 A2969 RMK AO2 T00120010
Loading
Personal Weather Stations






























Interactive Weather Map New forecast layout! Learn more

10-Day Weather Forecast

Advertisements
Track Severe Weather on mobile